Accueil
METAR-TAF:

METAR-TAF

Aéroports :

Nancy, France

Base aérienne 133 Nancy-Ochey

latitude: 48-35N, longitude: 005-58E, altitude: 336 m

Observation

Le bulletin a été fait il y a 34 minutes, à 10:00 UTC
Vent 14 kt de est/nord-est
Température -1°C
Humidité 64%
Pression 1015 hPa
Visibilité 10 km ou plus
Nuages épars à une hauteur de 2600 ft

METAR: LFSO 221000Z AUTO 06014KT 9999 SCT026 M01/M07 Q1015 TEMPO 06015G25KT

Heure: 11:34 (10:34 UTC)

Prévision

Le bulletin a été fait il y a 2 heures et 34 minutes, à 08:00 UTC
Prévision valable du 22 à 09 UTC au 23 à 09 UTC
Vent 10 kt de nord-est
Visibilité 10 km ou plus
Quelques nuages à une hauteur de 1500 ft
Temporairement
du 22 à 09 UTC au 23 à 09 UTC
Vent 15 kt de est/nord-est avec des rafales jusqu'à 25 kt

TAF: LFSO 220800Z 2209/2309 05010KT 9999 FEW015 TEMPO 2209/2309 06015G25KT

Observations et prévisions météorologiques de plus de 4000 aéroports (messages METAR et TAF).

Les stations disponibles sont représentées par des disques jaunes et rouges sur la carte.

Passer la souris dessus pour voir le nom de la station.

Cliquer dessus pour voir les observations et prévisions météorologiques.

Pour changer de carte: cliquez sur les boutons verts avec une croix noire pour zoomer, sur le bouton vert avec un tiret pour effectuer un zoom arrière, ou sur les flèches vertes pour les cartes adjacentes.


METAR-TAF: